createdAt,value
2019-03-03T00:00:41.532Z,99983.17
2019-03-03T00:03:11.451Z,99981.81
2019-03-03T00:05:41.268Z,99991.33
2019-03-03T00:08:11.635Z,99974.58
2019-03-03T00:10:41.572Z,99977.14
2019-03-03T00:13:11.574Z,99983.17
2019-03-03T00:15:41.674Z,99980.36
2019-03-03T00:18:11.784Z,99975.12
2019-03-03T00:20:43.140Z,99977.73
2019-03-03T00:23:13.487Z,99973.59
2019-03-03T00:25:43.327Z,99965.14
2019-03-03T00:28:13.386Z,99965.62
2019-03-03T00:30:44.728Z,99959.44
2019-03-03T00:33:14.773Z,99961.95
2019-03-03T00:35:45.143Z,99966.89
2019-03-03T00:38:26.637Z,99961.16
2019-03-03T00:41:17.209Z,99959.61
2019-03-03T00:44:03.751Z,99964.11
2019-03-03T00:46:50.318Z,99954.82
2019-03-03T00:49:57.880Z,99961.08
2019-03-03T00:52:37.480Z,99963.83
2019-03-03T00:55:19.527Z,99971.88
2019-03-03T00:57:55.271Z,99960.75
2019-03-03T01:00:33.618Z,99967.58
2019-03-03T01:03:25.163Z,99960.92
2019-03-03T01:06:14.039Z,99965.72
2019-03-03T01:08:59.954Z,99962.23
2019-03-03T01:11:52.159Z,99961.60
2019-03-03T01:14:34.981Z,99951.70
2019-03-03T01:17:15.603Z,99969.41
2019-03-03T01:19:53.247Z,99958.36
2019-03-03T01:22:40.880Z,99960.34
2019-03-03T01:25:10.685Z,99950.70
2019-03-03T01:27:42.766Z,99952.88
2019-03-03T01:30:12.920Z,99952.12
2019-03-03T01:32:42.869Z,99955.41
2019-03-03T01:35:12.965Z,99961.73
2019-03-03T01:37:44.064Z,99972.83
2019-03-03T01:40:14.176Z,99966.26
2019-03-03T01:42:44.305Z,99972.38
2019-03-03T01:45:14.727Z,99974.93
2019-03-03T01:47:44.515Z,99968.53
2019-03-03T01:50:14.387Z,99971.20
2019-03-03T01:52:44.230Z,99965.07
2019-03-03T01:55:13.990Z,99953.11
2019-03-03T01:57:43.658Z,99945.76
2019-03-03T02:00:22.658Z,99937.67
2019-03-03T02:02:52.673Z,99936.00
2019-03-03T02:05:23.091Z,99930.06
2019-03-03T02:07:52.904Z,99936.01
2019-03-03T02:10:23.506Z,99927.63
2019-03-03T02:12:55.407Z,99922.55
2019-03-03T02:15:25.234Z,99914.16
2019-03-03T02:17:55.288Z,99915.84
2019-03-03T02:20:25.529Z,99913.76
2019-03-03T02:22:55.371Z,99906.04
2019-03-03T02:25:25.402Z,99901.24
2019-03-03T02:27:55.317Z,99896.24
2019-03-03T02:30:26.888Z,99897.93
2019-03-03T02:32:57.055Z,99898.69
2019-03-03T02:35:27.257Z,99894.16
2019-03-03T02:37:57.324Z,99888.61
2019-03-03T02:40:28.335Z,99878.89
2019-03-03T02:42:59.713Z,99879.94
2019-03-03T02:45:29.746Z,99871.17
2019-03-03T02:47:59.601Z,99862.98
2019-03-03T02:50:29.416Z,99859.58
2019-03-03T02:52:59.789Z,99847.78
2019-03-03T02:55:29.689Z,99842.08
2019-03-03T02:57:59.899Z,99842.72
2019-03-03T03:00:30.135Z,99836.59
2019-03-03T03:03:01.412Z,99828.59
2019-03-03T03:05:53.691Z,99824.05
2019-03-03T03:08:34.025Z,99817.73
2019-03-03T03:11:21.249Z,99810.50
2019-03-03T03:13:59.178Z,99811.35
2019-03-03T03:16:37.627Z,99776.80
2019-03-03T03:19:20.741Z,99804.67
2019-03-03T03:22:07.039Z,99799.00
2019-03-03T03:24:55.223Z,99801.20
2019-03-03T03:27:49.155Z,99802.59
2019-03-03T03:30:37.970Z,99795.81
2019-03-03T03:33:15.856Z,99795.37
2019-03-03T03:36:00.706Z,99781.78
2019-03-03T03:39:01.880Z,99788.58
2019-03-03T03:41:51.144Z,99787.45
2019-03-03T03:44:43.494Z,99768.71
2019-03-03T03:47:42.338Z,99759.77
2019-03-03T03:50:21.706Z,99754.56
2019-03-03T03:53:06.569Z,99754.16
2019-03-03T03:55:54.625Z,99755.61
2019-03-03T03:58:42.381Z,99750.44
2019-03-03T04:01:24.630Z,99700.02
2019-03-03T04:04:05.001Z,99747.34
2019-03-03T04:06:54.074Z,99744.97
2019-03-03T04:09:33.992Z,99738.67
2019-03-03T04:12:13.242Z,99735.76
2019-03-03T04:14:51.940Z,99734.59
2019-03-03T04:17:29.537Z,99732.08
2019-03-03T04:20:05.715Z,99725.00
2019-03-03T04:22:55.010Z,99715.09
2019-03-03T04:25:42.736Z,99710.70
2019-03-03T04:28:19.636Z,99702.67
2019-03-03T04:30:56.116Z,99708.42
2019-03-03T04:33:38.312Z,99700.16
2019-03-03T04:36:14.866Z,99697.52
2019-03-03T04:39:00.136Z,99698.83
2019-03-03T04:41:47.612Z,99706.83
2019-03-03T04:44:23.029Z,99699.55
2019-03-03T04:46:59.043Z,99694.13
2019-03-03T04:49:57.371Z,99707.95
2019-03-03T04:52:37.530Z,99703.52
2019-03-03T04:55:19.995Z,99701.18
2019-03-03T04:58:09.130Z,99699.27
2019-03-03T05:00:57.102Z,99700.78
2019-03-03T05:03:35.137Z,99692.03
2019-03-03T05:06:10.494Z,99688.27
2019-03-03T05:08:59.545Z,99694.36
2019-03-03T05:12:23.583Z,99682.84
2019-03-03T05:14:56.041Z,99687.52
2019-03-03T05:17:32.793Z,99686.17
2019-03-03T05:20:03.008Z,99687.94
2019-03-03T05:22:33.180Z,99689.58
2019-03-03T05:25:03.429Z,99693.98
2019-03-03T05:27:33.647Z,99692.16
2019-03-03T05:30:03.309Z,99683.50
2019-03-03T05:32:32.933Z,99683.41
2019-03-03T05:35:02.599Z,99685.42
2019-03-03T05:37:32.488Z,99675.89
2019-03-03T05:40:02.336Z,99672.38
2019-03-03T05:42:32.081Z,99661.29
2019-03-03T05:45:01.711Z,99667.70
2019-03-03T05:47:31.658Z,99667.70
2019-03-03T05:50:01.651Z,99660.72
2019-03-03T05:52:31.309Z,99658.32
2019-03-03T05:55:01.281Z,99662.70
2019-03-03T05:57:30.836Z,99659.91
2019-03-03T06:00:00.722Z,99655.63
2019-03-03T06:02:30.704Z,99662.55
2019-03-03T06:05:01.247Z,99659.85
2019-03-03T06:07:30.949Z,99657.30
2019-03-03T06:10:01.114Z,99657.03
2019-03-03T06:12:31.295Z,99647.38
2019-03-03T06:15:01.232Z,99654.94
2019-03-03T06:17:31.073Z,99646.60
2019-03-03T06:20:00.701Z,99656.44
2019-03-03T06:22:30.578Z,99653.44
2019-03-03T06:25:00.579Z,99652.20
2019-03-03T06:27:30.302Z,99662.52
2019-03-03T06:29:59.996Z,99649.53
2019-03-03T06:32:29.856Z,99658.59
2019-03-03T06:34:59.859Z,99650.89
2019-03-03T06:37:29.529Z,99655.69
2019-03-03T06:39:59.230Z,99659.52
2019-03-03T06:42:29.145Z,99632.33
2019-03-03T06:44:58.819Z,99640.61
2019-03-03T06:47:29.039Z,99653.85
2019-03-03T06:49:58.906Z,99642.42
2019-03-03T06:52:28.831Z,99638.38
2019-03-03T06:54:58.712Z,99637.20
2019-03-03T06:57:28.954Z,99627.96
2019-03-03T06:59:58.617Z,99630.16
2019-03-03T07:02:28.536Z,99629.73
2019-03-03T07:04:58.469Z,99636.88
2019-03-03T07:07:28.208Z,99633.33
2019-03-03T07:09:58.067Z,99637.38
2019-03-03T07:12:27.967Z,99624.14
2019-03-03T07:14:57.672Z,99625.80
2019-03-03T07:17:27.331Z,99630.42
2019-03-03T07:20:03.365Z,99638.70
2019-03-03T07:22:37.922Z,99635.00
2019-03-03T07:25:09.730Z,99625.46
2019-03-03T07:27:41.182Z,99618.28
2019-03-03T07:30:13.093Z,99608.30
2019-03-03T07:33:00.630Z,99615.32
2019-03-03T07:35:30.623Z,99623.44
2019-03-03T07:38:00.833Z,99621.92
2019-03-03T07:40:31.503Z,99617.70
2019-03-03T07:43:01.653Z,99628.84
2019-03-03T07:45:31.548Z,99625.67
2019-03-03T07:48:01.174Z,99623.83
2019-03-03T07:50:31.065Z,99616.58
2019-03-03T07:53:00.730Z,99617.27
2019-03-03T07:55:30.357Z,99610.84
2019-03-03T07:58:00.307Z,99620.04
2019-03-03T08:00:30.305Z,99618.69
2019-03-03T08:03:00.296Z,99617.85
2019-03-03T08:05:29.917Z,99613.34
2019-03-03T08:08:00.109Z,99613.89
2019-03-03T08:10:29.818Z,99615.86
2019-03-03T08:13:08.717Z,99612.44
2019-03-03T08:15:31.294Z,99617.59
2019-03-03T08:18:01.288Z,99620.87
2019-03-03T08:20:30.995Z,99620.69
2019-03-03T08:23:00.612Z,99620.69
2019-03-03T08:25:30.269Z,99626.19
2019-03-03T08:28:00.149Z,99621.86
2019-03-03T08:30:31.051Z,99633.89
2019-03-03T08:33:00.987Z,99625.13
2019-03-03T08:35:30.723Z,99620.77
2019-03-03T08:38:00.929Z,99613.68
2019-03-03T08:40:30.772Z,99615.03
2019-03-03T08:43:17.763Z,99620.02
2019-03-03T08:46:09.815Z,99617.46
2019-03-03T08:48:43.849Z,99621.20
2019-03-03T08:51:35.658Z,99615.25
2019-03-03T08:54:29.826Z,99622.52
2019-03-03T08:57:17.443Z,99618.71
2019-03-03T08:59:59.808Z,99621.69
2019-03-03T09:02:35.891Z,99615.84
2019-03-03T09:05:32.492Z,99625.91
2019-03-03T09:08:24.135Z,99628.70
2019-03-03T09:11:12.194Z,99639.77
2019-03-03T09:14:00.882Z,99635.58
2019-03-03T09:16:55.938Z,99627.59
2019-03-03T09:19:34.483Z,99642.81
2019-03-03T09:22:23.451Z,99641.27
2019-03-03T09:25:09.554Z,99638.16
2019-03-03T09:28:04.638Z,99646.70
2019-03-03T09:30:52.685Z,99646.80
2019-03-03T09:33:50.287Z,99657.42
2019-03-03T09:36:42.519Z,99651.97
2019-03-03T09:39:46.765Z,99650.11
2019-03-03T09:42:36.216Z,99651.00
2019-03-03T09:45:37.899Z,99654.66
2019-03-03T09:48:25.695Z,99653.81
2019-03-03T09:51:13.389Z,99660.41
2019-03-03T09:53:54.609Z,99648.58
2019-03-03T09:56:30.064Z,99662.35
2019-03-03T09:59:33.838Z,99659.35
2019-03-03T10:02:13.697Z,99657.55
2019-03-03T10:05:20.893Z,99653.67
2019-03-03T10:08:08.714Z,99665.31
2019-03-03T10:10:55.853Z,99656.34
2019-03-03T10:13:34.340Z,99668.78
2019-03-03T10:16:20.580Z,99662.95
2019-03-03T10:19:21.978Z,99677.38
2019-03-03T10:22:03.299Z,99665.15
2019-03-03T10:25:07.508Z,99672.30
2019-03-03T10:27:51.152Z,99664.80
2019-03-03T10:30:37.104Z,99660.83
2019-03-03T10:33:35.282Z,99665.70
2019-03-03T10:36:24.544Z,99660.88
2019-03-03T10:39:12.855Z,99681.01
2019-03-03T10:41:54.776Z,99656.67
2019-03-03T10:44:47.946Z,99657.22
2019-03-03T10:47:35.687Z,99657.28
2019-03-03T10:50:16.941Z,99666.28
2019-03-03T10:52:55.491Z,99651.83
2019-03-03T10:55:34.097Z,99652.41
2019-03-03T10:58:18.513Z,99660.50
2019-03-03T11:01:09.212Z,99656.96
2019-03-03T11:04:07.331Z,99647.87
2019-03-03T11:06:57.755Z,99652.83
2019-03-03T11:09:46.961Z,99656.02
2019-03-03T11:12:31.835Z,99650.47
2019-03-03T11:15:19.582Z,99657.79
2019-03-03T11:17:57.776Z,99649.42
2019-03-03T11:20:52.106Z,99654.28
2019-03-03T11:23:29.990Z,99652.70
2019-03-03T11:26:15.935Z,99649.19
2019-03-03T11:29:04.798Z,99645.39
2019-03-03T11:32:11.758Z,99654.35
2019-03-03T11:35:09.653Z,99655.31
2019-03-03T11:37:46.839Z,99651.17
2019-03-03T11:40:24.494Z,99646.33
2019-03-03T11:43:16.444Z,99654.08
2019-03-03T11:46:11.623Z,99650.22
2019-03-03T11:48:59.149Z,99648.17
2019-03-03T11:51:51.127Z,99639.77
2019-03-03T11:54:25.626Z,99637.22
2019-03-03T11:57:06.315Z,99640.30
2019-03-03T11:59:42.373Z,99628.03
2019-03-03T12:02:20.236Z,99628.18
2019-03-03T12:05:10.199Z,99628.66
2019-03-03T12:07:57.864Z,99627.30
2019-03-03T12:10:36.921Z,99621.17
2019-03-03T12:13:22.330Z,99615.66
2019-03-03T12:16:07.752Z,99620.59
2019-03-03T12:18:54.027Z,99616.47
2019-03-03T12:21:49.180Z,99614.57
2019-03-03T12:24:25.096Z,99609.20
2019-03-03T12:27:12.721Z,99609.20
2019-03-03T12:30:01.866Z,99600.89
2019-03-03T12:32:44.597Z,99604.53
2019-03-03T12:35:26.338Z,99605.73
2019-03-03T12:38:02.116Z,99601.37
2019-03-03T12:40:49.622Z,99599.14
2019-03-03T12:43:44.743Z,99592.48
2019-03-03T12:46:26.204Z,99591.63
2019-03-03T12:49:03.867Z,99583.61
2019-03-03T12:51:50.094Z,99590.92
2019-03-03T12:54:31.984Z,99577.84
2019-03-03T12:57:10.571Z,99578.16
2019-03-03T13:00:08.266Z,99572.47
2019-03-03T13:03:08.685Z,99575.88
2019-03-03T13:05:54.725Z,99574.59
2019-03-03T13:08:39.034Z,99568.08
2019-03-03T13:11:27.179Z,99561.80
2019-03-03T13:14:08.010Z,99550.08
2019-03-03T13:16:51.884Z,99552.46
2019-03-03T13:19:29.469Z,99559.02
2019-03-03T13:22:16.711Z,99543.47
2019-03-03T13:24:57.046Z,99553.94
2019-03-03T13:27:36.888Z,99532.88
2019-03-03T13:30:38.329Z,99535.45
2019-03-03T13:33:18.993Z,99542.28
2019-03-03T13:36:06.586Z,99539.73
2019-03-03T13:39:05.083Z,99538.55
2019-03-03T13:41:54.538Z,99536.84
2019-03-03T13:44:24.939Z,99536.78
2019-03-03T13:46:55.311Z,99536.55
2019-03-03T13:49:25.196Z,99538.45
2019-03-03T13:51:55.272Z,99528.47
2019-03-03T13:54:25.219Z,99528.91
2019-03-03T13:56:55.367Z,99532.55
2019-03-03T13:59:25.230Z,99529.43
2019-03-03T14:01:55.030Z,99530.23
2019-03-03T14:04:24.813Z,99523.44
2019-03-03T14:06:54.485Z,99518.03
2019-03-03T14:09:24.385Z,99522.89
2019-03-03T14:11:54.037Z,99521.34
2019-03-03T14:14:23.715Z,99507.47
2019-03-03T14:16:53.349Z,99506.53
2019-03-03T14:19:23.118Z,99506.73
2019-03-03T14:21:53.050Z,99499.00
2019-03-03T14:24:22.796Z,99496.27
2019-03-03T14:26:53.684Z,99485.92
2019-03-03T14:29:23.817Z,99489.37
2019-03-03T14:31:53.442Z,99487.30
2019-03-03T14:34:23.426Z,99491.09
2019-03-03T14:36:53.384Z,99482.59
2019-03-03T14:39:23.400Z,99481.30
2019-03-03T14:41:53.065Z,99465.17
2019-03-03T14:44:22.832Z,99480.78
2019-03-03T14:46:52.514Z,99470.95
2019-03-03T14:49:22.140Z,99458.84
2019-03-03T14:51:53.293Z,99468.28
2019-03-03T14:54:23.271Z,99458.68
2019-03-03T14:56:53.340Z,99456.69
2019-03-03T14:59:23.000Z,99460.84
2019-03-03T15:01:52.972Z,99456.27
2019-03-03T15:04:22.865Z,99462.75
2019-03-03T15:06:52.758Z,99450.52
2019-03-03T15:09:23.607Z,99461.91
2019-03-03T15:11:53.378Z,99452.25
2019-03-03T15:14:23.322Z,99449.25
2019-03-03T15:16:54.694Z,99450.66
2019-03-03T15:19:25.057Z,99446.64
2019-03-03T15:21:54.741Z,99447.38
2019-03-03T15:24:28.107Z,99449.92
2019-03-03T15:26:58.340Z,99451.09
2019-03-03T15:29:28.310Z,99443.64
2019-03-03T15:31:58.079Z,99438.29
2019-03-03T15:34:28.078Z,99437.61
2019-03-03T15:36:57.858Z,99450.41
2019-03-03T15:39:30.625Z,99435.06
2019-03-03T15:42:05.889Z,99430.37
2019-03-03T15:44:36.169Z,99437.20
2019-03-03T15:47:06.017Z,99431.77
2019-03-03T15:49:35.632Z,99425.65
2019-03-03T15:52:05.659Z,99425.30
2019-03-03T15:54:35.272Z,99427.22
2019-03-03T15:57:05.132Z,99419.61
2019-03-03T15:59:35.010Z,99423.99
2019-03-03T16:02:06.146Z,99418.36
2019-03-03T16:04:35.843Z,99419.86
2019-03-03T16:07:05.543Z,99425.65
2019-03-03T16:09:35.604Z,99414.98
2019-03-03T16:12:10.564Z,99415.10
2019-03-03T16:14:43.927Z,99408.16
2019-03-03T16:17:13.670Z,99407.91
2019-03-03T16:19:44.506Z,99402.86
2019-03-03T16:22:14.201Z,99407.43
2019-03-03T16:24:44.638Z,99402.14
2019-03-03T16:27:15.269Z,99397.50
2019-03-03T16:29:45.449Z,99394.95
2019-03-03T16:32:15.080Z,99399.87
2019-03-03T16:34:44.736Z,99380.91
2019-03-03T16:37:14.504Z,99374.16
2019-03-03T16:39:49.072Z,99377.05
2019-03-03T16:42:18.892Z,99379.50
2019-03-03T16:44:48.844Z,99377.33
2019-03-03T16:47:18.772Z,99379.09
2019-03-03T16:49:48.717Z,99377.58
2019-03-03T16:52:18.666Z,99365.30
2019-03-03T16:54:51.907Z,99359.34
2019-03-03T16:57:22.030Z,99365.89
2019-03-03T16:59:51.726Z,99365.31
2019-03-03T17:02:21.424Z,99357.14
2019-03-03T17:04:51.167Z,99356.22
2019-03-03T17:07:21.136Z,99347.56
2019-03-03T17:09:51.039Z,99347.70
2019-03-03T17:12:21.018Z,99351.66
2019-03-03T17:14:52.669Z,99341.44
2019-03-03T17:17:22.396Z,99336.06
2019-03-03T17:19:52.358Z,99339.78
2019-03-03T17:22:22.528Z,99334.63
2019-03-03T17:24:52.569Z,99326.47
2019-03-03T17:27:22.821Z,99327.06
2019-03-03T17:29:52.486Z,99347.61
2019-03-03T17:32:22.170Z,99337.39
2019-03-03T17:34:51.802Z,99331.02
2019-03-03T17:37:21.745Z,99336.34
2019-03-03T17:39:51.536Z,99326.71
2019-03-03T17:42:21.660Z,99320.11
2019-03-03T17:44:51.700Z,99325.29
2019-03-03T17:47:21.432Z,99319.62
2019-03-03T17:49:51.179Z,99317.36
2019-03-03T17:52:21.013Z,99322.30
2019-03-03T17:54:51.119Z,99328.66
2019-03-03T17:57:20.789Z,99317.36
2019-03-03T17:59:50.531Z,99317.84
2019-03-03T18:02:20.211Z,99321.81
2019-03-03T18:04:49.914Z,99321.81
2019-03-03T18:07:19.977Z,99322.41
2019-03-03T18:09:50.175Z,99314.23
2019-03-03T18:12:19.845Z,99318.05
2019-03-03T18:14:49.931Z,99313.98
2019-03-03T18:17:20.163Z,99314.13
2019-03-03T18:19:52.195Z,99320.11
2019-03-03T18:22:21.832Z,99303.06
2019-03-03T18:24:52.025Z,99294.16
2019-03-03T18:27:22.309Z,99288.88
2019-03-03T18:29:52.071Z,99291.17
2019-03-03T18:32:22.158Z,99273.86
2019-03-03T18:34:52.323Z,99277.47
2019-03-03T18:37:22.337Z,99276.50
2019-03-03T18:39:52.405Z,99273.52
2019-03-03T18:42:22.070Z,99270.73
2019-03-03T18:44:52.136Z,99260.55
2019-03-03T18:47:22.057Z,99263.19
2019-03-03T18:49:52.147Z,99259.19
2019-03-03T18:52:22.133Z,99249.94
2019-03-03T18:54:51.894Z,99249.94
2019-03-03T18:57:22.375Z,99247.78
2019-03-03T18:59:52.165Z,99241.18
2019-03-03T19:02:21.843Z,99246.36
2019-03-03T19:04:52.938Z,99242.28
2019-03-03T19:07:24.079Z,99245.14
2019-03-03T19:09:54.125Z,99237.34
2019-03-03T19:12:23.803Z,99227.86
2019-03-03T19:14:54.610Z,99224.73
2019-03-03T19:17:24.363Z,99232.28
2019-03-03T19:19:54.798Z,99223.55
2019-03-03T19:22:24.753Z,99217.17
2019-03-03T19:24:54.431Z,99224.72
2019-03-03T19:27:24.063Z,99215.84
2019-03-03T19:29:53.993Z,99224.25
2019-03-03T19:32:23.919Z,99224.63
2019-03-03T19:34:53.774Z,99218.95
2019-03-03T19:37:23.401Z,99228.82
2019-03-03T19:39:53.306Z,99222.21
2019-03-03T19:42:23.063Z,99216.45
2019-03-03T19:44:59.242Z,99210.43
2019-03-03T19:47:29.073Z,99196.73
2019-03-03T19:49:59.210Z,99186.16
2019-03-03T19:52:30.261Z,99190.97
2019-03-03T19:55:00.654Z,99187.98
2019-03-03T19:57:30.700Z,99181.24
2019-03-03T20:00:00.511Z,99178.83
2019-03-03T20:02:30.219Z,99179.92
2019-03-03T20:05:00.237Z,99175.13
2019-03-03T20:07:30.611Z,99167.20
2019-03-03T20:10:00.323Z,99173.34
2019-03-03T20:12:30.113Z,99166.00
2019-03-03T20:14:59.749Z,99165.17
2019-03-03T20:17:29.819Z,99166.34
2019-03-03T20:19:59.590Z,99151.47
2019-03-03T20:22:29.325Z,99144.95
2019-03-03T20:24:59.403Z,99148.94
2019-03-03T20:27:29.517Z,99139.44
2019-03-03T20:29:59.674Z,99147.98
2019-03-03T20:32:29.293Z,99136.31
2019-03-03T20:34:59.236Z,99147.25
2019-03-03T20:37:29.202Z,99146.89
2019-03-03T20:39:59.300Z,99148.80
2019-03-03T20:42:28.959Z,99141.38
2019-03-03T20:44:58.626Z,99128.62
2019-03-03T20:47:28.335Z,99133.58
2019-03-03T20:49:58.366Z,99118.06
2019-03-03T20:52:28.897Z,99116.28
2019-03-03T20:54:58.695Z,99109.53
2019-03-03T20:57:29.295Z,99104.97
2019-03-03T20:59:59.044Z,99092.86
2019-03-03T21:02:32.687Z,99094.27
2019-03-03T21:05:02.589Z,99092.13
2019-03-03T21:07:32.555Z,99077.23
2019-03-03T21:10:02.607Z,99082.89
2019-03-03T21:12:33.824Z,99074.73
2019-03-03T21:15:04.014Z,99073.98
2019-03-03T21:17:34.185Z,99066.78
2019-03-03T21:20:04.595Z,99068.11
2019-03-03T21:22:34.344Z,99073.14
2019-03-03T21:25:04.119Z,99070.38
2019-03-03T21:27:34.026Z,99070.49
2019-03-03T21:30:04.357Z,99074.11
2019-03-03T21:32:34.064Z,99065.93
2019-03-03T21:35:03.817Z,99066.31
2019-03-03T21:37:33.482Z,99063.66
2019-03-03T21:40:03.458Z,99062.22
2019-03-03T21:42:33.700Z,99039.39
2019-03-03T21:45:04.511Z,99050.20
2019-03-03T21:47:34.397Z,99050.35
2019-03-03T21:50:04.777Z,99046.97
2019-03-03T21:52:34.410Z,99054.08
2019-03-03T21:55:04.499Z,99043.23
2019-03-03T21:57:35.883Z,99032.06
2019-03-03T22:00:11.238Z,99029.19
2019-03-03T22:02:40.946Z,99023.31
2019-03-03T22:05:10.659Z,99026.67
2019-03-03T22:07:40.615Z,99018.23
2019-03-03T22:10:10.560Z,99024.03
2019-03-03T22:12:40.493Z,99011.28
2019-03-03T22:15:10.461Z,99016.55
2019-03-03T22:17:40.118Z,99001.19
2019-03-03T22:20:10.166Z,98998.92
2019-03-03T22:22:40.023Z,98994.94
2019-03-03T22:25:10.059Z,98988.44
2019-03-03T22:27:39.958Z,98978.39
2019-03-03T22:30:10.141Z,99002.63
2019-03-03T22:32:39.922Z,98998.41
2019-03-03T22:35:10.216Z,98989.51
2019-03-03T22:37:39.842Z,98991.45
2019-03-03T22:40:11.075Z,99006.77
2019-03-03T22:42:41.028Z,98989.13
2019-03-03T22:45:12.181Z,98965.49
2019-03-03T22:47:42.574Z,98961.00
2019-03-03T22:50:12.773Z,98959.60
2019-03-03T22:52:42.487Z,98962.89
2019-03-03T22:55:12.293Z,98965.77
2019-03-03T22:57:42.217Z,98958.81
2019-03-03T23:00:50.258Z,98957.11
2019-03-03T23:03:33.965Z,98945.22
2019-03-03T23:06:23.778Z,98961.77
2019-03-03T23:09:17.349Z,98955.30
2019-03-03T23:12:40.560Z,98947.60
2019-03-03T23:15:24.874Z,98939.09
2019-03-03T23:18:34.114Z,98923.81
2019-03-03T23:21:54.882Z,98929.09
2019-03-03T23:25:02.898Z,98924.30
2019-03-03T23:27:33.011Z,98929.73
2019-03-03T23:30:03.236Z,98924.22
2019-03-03T23:32:33.289Z,98908.21
2019-03-03T23:35:02.962Z,98905.56
2019-03-03T23:37:32.675Z,98902.27
2019-03-03T23:40:03.733Z,98905.56
2019-03-03T23:42:33.737Z,98891.97
2019-03-03T23:45:03.441Z,98882.48
2019-03-03T23:47:33.479Z,98869.86
2019-03-03T23:50:03.155Z,98889.28
2019-03-03T23:52:32.855Z,98879.34
2019-03-03T23:55:02.482Z,98868.50
2019-03-03T23:57:32.405Z,98870.77
